LDA21A3 EINN-EHRD
Flight info
| Callsign | LDA21A3 |
|---|---|
| Flight time | N/A |
| Altitude | 35000 |
| Route | ABAGU3A ABAGU DCT BEPAN DCT LANON DCT FACTU P155 SIVDA P137 REDFA |
| Aircraft | A320/M-SDE3FGHIRWY/LB1 |
Departure
| Time | 2026-05-08 14:49 |
|---|---|
| Airport | Shannon Airport (EINN) |
Arrival
| Time | N/A |
|---|---|
| Airport | Rotterdam The Hague Airport (EHRD) |
| Time | Latitude | Longitude | Altitude | Speed | Heading |
|---|---|---|---|---|---|
| 2026-05-08 14:27 | 52.69216 | -8.91688 | 22 ft | 0 kts | 94° |
| 2026-05-08 14:42 | 52.69216 | -8.91685 | 20 ft | 1 kts | 94° |
| 2026-05-08 14:43 | 52.69223 | -8.91656 | 20 ft | 4 kts | 64° |
| 2026-05-08 14:43 | 52.69252 | -8.91622 | 20 ft | 7 kts | 359° |
| 2026-05-08 14:43 | 52.69291 | -8.91673 | 20 ft | 9 kts | 312° |
| 2026-05-08 14:43 | 52.69343 | -8.91743 | 22 ft | 11 kts | 330° |
| 2026-05-08 14:44 | 52.69413 | -8.91805 | 20 ft | 13 kts | 302° |
| 2026-05-08 14:44 | 52.69448 | -8.91945 | 21 ft | 14 kts | 283° |
| 2026-05-08 14:44 | 52.69473 | -8.92106 | 23 ft | 7 kts | 284° |
| 2026-05-08 14:44 | 52.69475 | -8.92118 | 22 ft | 2 kts | 284° |
| 2026-05-08 14:45 | 52.69479 | -8.92146 | 21 ft | 3 kts | 284° |
| 2026-05-08 14:45 | 52.69489 | -8.92191 | 22 ft | 5 kts | 291° |
| 2026-05-08 14:45 | 52.69508 | -8.92266 | 22 ft | 9 kts | 295° |
| 2026-05-08 14:45 | 52.69545 | -8.92369 | 22 ft | 12 kts | 307° |
| 2026-05-08 14:46 | 52.69614 | -8.92481 | 22 ft | 16 kts | 314° |
| 2026-05-08 14:46 | 52.69702 | -8.92619 | 22 ft | 19 kts | 315° |
| 2026-05-08 14:46 | 52.69803 | -8.92785 | 22 ft | 22 kts | 314° |
| 2026-05-08 14:46 | 52.69917 | -8.92977 | 23 ft | 24 kts | 301° |
| 2026-05-08 14:47 | 52.69857 | -8.93200 | 24 ft | 24 kts | 232° |
| 2026-05-08 14:47 | 52.69748 | -8.93434 | 26 ft | 27 kts | 232° |
| 2026-05-08 14:47 | 52.69626 | -8.93695 | 27 ft | 30 kts | 232° |
| 2026-05-08 14:47 | 52.69495 | -8.93973 | 32 ft | 31 kts | 232° |
| 2026-05-08 14:48 | 52.69370 | -8.94192 | 34 ft | 26 kts | 200° |
| 2026-05-08 14:48 | 52.69310 | -8.94317 | 34 ft | 13 kts | 315° |
| 2026-05-08 14:48 | 52.69365 | -8.94242 | 34 ft | 13 kts | 56° |
| 2026-05-08 14:48 | 52.69503 | -8.93959 | 31 ft | 66 kts | 51° |
| 2026-05-08 14:49 | 52.69950 | -8.93009 | 24 ft | 133 kts | 54° |
| 2026-05-08 14:49 | 52.70566 | -8.91714 | 332 ft | 139 kts | 49° |
| 2026-05-08 14:49 | 52.71179 | -8.90466 | 742 ft | 150 kts | 49° |
| 2026-05-08 14:49 | 52.71739 | -8.88871 | 1300 ft | 174 kts | 75° |
| 2026-05-08 14:50 | 52.71740 | -8.86770 | 1673 ft | 194 kts | 101° |
| 2026-05-08 14:50 | 52.71319 | -8.84605 | 2259 ft | 199 kts | 103° |
| 2026-05-08 14:50 | 52.70920 | -8.82405 | 2912 ft | 201 kts | 102° |
| 2026-05-08 14:50 | 52.70520 | -8.80075 | 3295 ft | 219 kts | 102° |
| 2026-05-08 14:51 | 52.70105 | -8.77625 | 4036 ft | 223 kts | 103° |
| 2026-05-08 14:51 | 52.69683 | -8.75141 | 4866 ft | 226 kts | 104° |
| 2026-05-08 14:51 | 52.69253 | -8.72618 | 5634 ft | 231 kts | 104° |
| 2026-05-08 14:51 | 52.68813 | -8.70056 | 6464 ft | 233 kts | 105° |
| 2026-05-08 14:52 | 52.68369 | -8.67462 | 7246 ft | 236 kts | 105° |
| 2026-05-08 14:52 | 52.67477 | -8.62242 | 8860 ft | 241 kts | 105° |
| 2026-05-08 14:52 | 52.67019 | -8.59556 | 9679 ft | 245 kts | 106° |
| 2026-05-08 14:53 | 52.66555 | -8.56835 | 10430 ft | 247 kts | 107° |
| 2026-05-08 14:53 | 52.66083 | -8.54083 | 11143 ft | 251 kts | 108° |
| 2026-05-08 14:53 | 52.65603 | -8.51293 | 11799 ft | 256 kts | 108° |
| 2026-05-08 14:53 | 52.65093 | -8.48349 | 12075 ft | 279 kts | 108° |
| 2026-05-08 14:54 | 52.64543 | -8.45177 | 12507 ft | 294 kts | 108° |
| 2026-05-08 14:54 | 52.63977 | -8.41895 | 13175 ft | 300 kts | 108° |
| 2026-05-08 14:54 | 52.63402 | -8.38559 | 13872 ft | 305 kts | 108° |
| 2026-05-08 14:54 | 52.62816 | -8.35179 | 14475 ft | 309 kts | 108° |
| 2026-05-08 14:55 | 52.62224 | -8.31771 | 15091 ft | 313 kts | 109° |
| 2026-05-08 14:55 | 52.61625 | -8.28333 | 15689 ft | 317 kts | 109° |
| 2026-05-08 14:55 | 52.61013 | -8.24826 | 16299 ft | 321 kts | 109° |
| 2026-05-08 14:55 | 52.60390 | -8.21276 | 16910 ft | 325 kts | 109° |
| 2026-05-08 14:56 | 52.59760 | -8.17688 | 17521 ft | 328 kts | 109° |
| 2026-05-08 14:56 | 52.59121 | -8.14065 | 18131 ft | 332 kts | 110° |
| 2026-05-08 14:56 | 52.58472 | -8.10388 | 18679 ft | 336 kts | 110° |
| 2026-05-08 14:56 | 52.57819 | -8.06680 | 19202 ft | 339 kts | 110° |
| 2026-05-08 14:57 | 52.57157 | -8.02931 | 19725 ft | 343 kts | 110° |
| 2026-05-08 14:57 | 52.56489 | -7.99150 | 20245 ft | 346 kts | 111° |
| 2026-05-08 14:57 | 52.55813 | -7.95333 | 20771 ft | 349 kts | 111° |
| 2026-05-08 14:57 | 52.55132 | -7.91493 | 21274 ft | 352 kts | 111° |
| 2026-05-08 14:58 | 52.54442 | -7.87613 | 21768 ft | 355 kts | 111° |
| 2026-05-08 14:58 | 52.53746 | -7.83698 | 22250 ft | 358 kts | 111° |
| 2026-05-08 14:58 | 52.53043 | -7.79754 | 22737 ft | 362 kts | 112° |
| 2026-05-08 14:58 | 52.52331 | -7.75778 | 23224 ft | 365 kts | 112° |
| 2026-05-08 14:59 | 52.51608 | -7.71764 | 23704 ft | 368 kts | 112° |
| 2026-05-08 14:59 | 52.50361 | -7.63529 | 24496 ft | 382 kts | 95° |
| 2026-05-08 14:59 | 52.50438 | -7.59137 | 24885 ft | 387 kts | 92° |
| 2026-05-08 15:00 | 52.50546 | -7.54705 | 25281 ft | 390 kts | 92° |
| 2026-05-08 15:00 | 52.50649 | -7.50237 | 25669 ft | 393 kts | 92° |
| 2026-05-08 15:00 | 52.50749 | -7.45733 | 26042 ft | 396 kts | 92° |
| 2026-05-08 15:00 | 52.50845 | -7.41197 | 26428 ft | 399 kts | 92° |
| 2026-05-08 15:01 | 52.50940 | -7.36613 | 26827 ft | 402 kts | 92° |
| 2026-05-08 15:01 | 52.51034 | -7.32006 | 27226 ft | 405 kts | 93° |
| 2026-05-08 15:01 | 52.51127 | -7.27360 | 27627 ft | 408 kts | 93° |
| 2026-05-08 15:01 | 52.51216 | -7.22754 | 28021 ft | 411 kts | 93° |
| 2026-05-08 15:02 | 52.51306 | -7.18051 | 28419 ft | 413 kts | 93° |
| 2026-05-08 15:02 | 52.51394 | -7.13321 | 28806 ft | 416 kts | 93° |
| 2026-05-08 15:02 | 52.51483 | -7.08550 | 29208 ft | 419 kts | 93° |
| 2026-05-08 15:02 | 52.51570 | -7.03743 | 29600 ft | 422 kts | 93° |
| 2026-05-08 15:03 | 52.51654 | -6.98922 | 29960 ft | 425 kts | 94° |
| 2026-05-08 15:03 | 52.51735 | -6.94045 | 30307 ft | 428 kts | 93° |
| 2026-05-08 15:03 | 52.51787 | -6.90797 | 30514 ft | 430 kts | 93° |
| 2026-05-08 15:03 | 52.51867 | -6.85869 | 30831 ft | 433 kts | 93° |
| 2026-05-08 15:04 | 52.51945 | -6.80919 | 31146 ft | 436 kts | 93° |
| 2026-05-08 15:04 | 52.52023 | -6.75924 | 31458 ft | 439 kts | 93° |
| 2026-05-08 15:04 | 52.52100 | -6.70881 | 31765 ft | 441 kts | 93° |
| 2026-05-08 15:04 | 52.52173 | -6.65833 | 32066 ft | 444 kts | 93° |
| 2026-05-08 15:05 | 52.52243 | -6.60735 | 32351 ft | 447 kts | 93° |
| 2026-05-08 15:05 | 52.52310 | -6.55692 | 32629 ft | 450 kts | 92° |
| 2026-05-08 15:05 | 52.52379 | -6.50481 | 32907 ft | 452 kts | 92° |
| 2026-05-08 15:05 | 52.52447 | -6.45297 | 33172 ft | 455 kts | 92° |
| 2026-05-08 15:06 | 52.52515 | -6.40164 | 33453 ft | 457 kts | 92° |
| 2026-05-08 15:06 | 52.52580 | -6.34930 | 33734 ft | 459 kts | 92° |
| 2026-05-08 15:06 | 52.52643 | -6.29661 | 33996 ft | 462 kts | 92° |
| 2026-05-08 15:06 | 52.52601 | -6.24398 | 34224 ft | 461 kts | 98° |
| 2026-05-08 15:07 | 52.52367 | -6.19130 | 34458 ft | 463 kts | 98° |
| 2026-05-08 15:07 | 52.52132 | -6.13846 | 34707 ft | 465 kts | 98° |
| 2026-05-08 15:07 | 52.51897 | -6.08536 | 34954 ft | 466 kts | 98° |
| 2026-05-08 15:07 | 52.51663 | -6.03222 | 35057 ft | 466 kts | 98° |
| 2026-05-08 15:08 | 52.51194 | -5.92614 | 35078 ft | 466 kts | 97° |
| 2026-05-08 15:08 | 52.50710 | -5.81997 | 35076 ft | 466 kts | 97° |
| 2026-05-08 15:09 | 52.50212 | -5.71366 | 35080 ft | 466 kts | 98° |
| 2026-05-08 15:09 | 52.49713 | -5.60825 | 35079 ft | 466 kts | 98° |
| 2026-05-08 15:10 | 52.49193 | -5.50228 | 35080 ft | 466 kts | 98° |
| 2026-05-08 15:10 | 52.48664 | -5.39623 | 35090 ft | 466 kts | 98° |
| 2026-05-08 15:11 | 52.48130 | -5.29021 | 35083 ft | 466 kts | 98° |
| 2026-05-08 15:11 | 52.47595 | -5.18418 | 35084 ft | 466 kts | 98° |
| 2026-05-08 15:12 | 52.47046 | -5.07807 | 35090 ft | 466 kts | 98° |
| 2026-05-08 15:12 | 52.46479 | -4.97208 | 35084 ft | 466 kts | 98° |
| 2026-05-08 15:13 | 52.45894 | -4.86604 | 35078 ft | 467 kts | 98° |
| 2026-05-08 15:13 | 52.45316 | -4.76061 | 35071 ft | 467 kts | 98° |
| 2026-05-08 15:14 | 52.44735 | -4.65438 | 35078 ft | 467 kts | 98° |
| 2026-05-08 15:14 | 52.44137 | -4.54841 | 35060 ft | 467 kts | 98° |
| 2026-05-08 15:15 | 52.43520 | -4.44228 | 35045 ft | 467 kts | 98° |
| 2026-05-08 15:15 | 52.42913 | -4.33640 | 35051 ft | 467 kts | 96° |
| 2026-05-08 15:16 | 52.42565 | -4.22998 | 35060 ft | 467 kts | 94° |
| 2026-05-08 15:16 | 52.42328 | -4.12362 | 35063 ft | 467 kts | 94° |
| 2026-05-08 15:17 | 52.42036 | -4.01724 | 35062 ft | 467 kts | 95° |
| 2026-05-08 15:17 | 52.41680 | -3.91099 | 35053 ft | 467 kts | 95° |
| 2026-05-08 15:18 | 52.41290 | -3.80460 | 35056 ft | 467 kts | 95° |
| 2026-05-08 15:18 | 52.40912 | -3.69845 | 35054 ft | 467 kts | 95° |
| 2026-05-08 15:19 | 52.40541 | -3.59297 | 35055 ft | 467 kts | 95° |
| 2026-05-08 15:19 | 52.40152 | -3.48603 | 35060 ft | 467 kts | 95° |
| 2026-05-08 15:20 | 52.39759 | -3.38039 | 35057 ft | 468 kts | 95° |
| 2026-05-08 15:20 | 52.39345 | -3.27419 | 35065 ft | 468 kts | 95° |
| 2026-05-08 15:21 | 52.38921 | -3.16776 | 35073 ft | 468 kts | 95° |
| 2026-05-08 15:21 | 52.38499 | -3.06156 | 35073 ft | 468 kts | 95° |
| 2026-05-08 15:22 | 52.38064 | -2.95529 | 35073 ft | 468 kts | 95° |
| 2026-05-08 15:22 | 52.37613 | -2.84904 | 35073 ft | 468 kts | 95° |
| 2026-05-08 15:23 | 52.37158 | -2.74317 | 35076 ft | 468 kts | 95° |
| 2026-05-08 15:23 | 52.36695 | -2.63717 | 35081 ft | 468 kts | 95° |
| 2026-05-08 15:24 | 52.36215 | -2.53090 | 35083 ft | 468 kts | 95° |
| 2026-05-08 15:24 | 52.35726 | -2.42445 | 35078 ft | 468 kts | 95° |
| 2026-05-08 15:25 | 52.35232 | -2.31825 | 35085 ft | 468 kts | 95° |
| 2026-05-08 15:25 | 52.35166 | -2.21190 | 35084 ft | 468 kts | 89° |
| 2026-05-08 15:26 | 52.35291 | -2.10615 | 35082 ft | 468 kts | 89° |
| 2026-05-08 15:26 | 52.35402 | -1.99980 | 35083 ft | 467 kts | 89° |
| 2026-05-08 15:27 | 52.35500 | -1.89369 | 35086 ft | 467 kts | 89° |
| 2026-05-08 15:27 | 52.35585 | -1.78761 | 35099 ft | 466 kts | 89° |
| 2026-05-08 15:28 | 52.35656 | -1.68174 | 35098 ft | 465 kts | 89° |
| 2026-05-08 15:28 | 52.35724 | -1.57577 | 35093 ft | 465 kts | 89° |
| 2026-05-08 15:29 | 52.35787 | -1.47000 | 35115 ft | 465 kts | 89° |
| 2026-05-08 15:29 | 52.35841 | -1.36418 | 35116 ft | 465 kts | 89° |
| 2026-05-08 15:30 | 52.35881 | -1.25844 | 35116 ft | 465 kts | 89° |
| 2026-05-08 15:30 | 52.35909 | -1.15326 | 35113 ft | 465 kts | 89° |
| 2026-05-08 15:31 | 52.35928 | -1.04741 | 35113 ft | 465 kts | 89° |
| 2026-05-08 15:31 | 52.35938 | -0.94158 | 35100 ft | 464 kts | 89° |
| 2026-05-08 15:32 | 52.35947 | -0.83583 | 35095 ft | 464 kts | 89° |
| 2026-05-08 15:32 | 52.35938 | -0.73038 | 35092 ft | 464 kts | 89° |
| 2026-05-08 15:33 | 52.35917 | -0.62484 | 35094 ft | 464 kts | 89° |
| 2026-05-08 15:33 | 52.35894 | -0.51920 | 35096 ft | 464 kts | 89° |
| 2026-05-08 15:34 | 52.35858 | -0.41419 | 34671 ft | 459 kts | 89° |
| 2026-05-08 15:34 | 52.35839 | -0.36206 | 34246 ft | 456 kts | 89° |
| 2026-05-08 15:34 | 52.35819 | -0.31110 | 33785 ft | 453 kts | 89° |
| 2026-05-08 15:35 | 52.35793 | -0.25976 | 33327 ft | 450 kts | 89° |
| 2026-05-08 15:35 | 52.35765 | -0.20875 | 32897 ft | 446 kts | 89° |
| 2026-05-08 15:35 | 52.35733 | -0.15806 | 32474 ft | 443 kts | 89° |
| 2026-05-08 15:35 | 52.35698 | -0.10791 | 32069 ft | 439 kts | 89° |